Time;durP1;ratioP1;P1;durP2;ratioP2;P2;SDS_P1;SDS_P2;PMS_P1;PMS_P2;Temp;Humidity;BMP_temperature;BMP_pressure;BME280_temperature;BME280_humidity;BME280_pressure;Samples;Min_cycle;Max_cycle;Signal;HPM_P1;HPM_P2
2021/05/19 00:01:25;;;;;;;;;;;;;;;21.39;55.23;98966.19;1741618;81;20262;-77
2021/05/19 00:03:51;;;;;;;;;;;;;;;21.41;55.15;98970.84;1735004;81;20207;-78
2021/05/19 00:06:17;;;;;;;;;;;;;;;21.41;55.14;98972.20;1743790;81;20258;-78
2021/05/19 00:08:44;;;;;;;;;;;;;;;21.45;55.03;98976.04;1740762;81;20266;-77
2021/05/19 00:11:10;;;;;;;;;;;;;;;21.44;54.91;98979.86;1737237;81;20200;-77
2021/05/19 00:13:36;;;;;;;;;;;;;;;21.45;54.81;98978.77;1738789;81;20257;-78
2021/05/19 00:16:06;;;;;;;;;;;;;;;21.41;54.63;98982.55;1737311;81;20238;-78
2021/05/19 00:18:34;;;;;;;;;;;;;;;21.36;54.60;98987.98;1736559;81;20276;-77
2021/05/19 00:21:02;;;;;;;;;;;;;;;21.31;54.76;98981.66;1740737;81;20532;-77
2021/05/19 00:23:28;;;;;;;;;;;;;;;21.26;54.85;98978.38;1741641;81;20563;-77
2021/05/19 00:25:54;;;;;;;;;;;;;;;21.22;54.87;98982.16;1740693;81;20148;-77
2021/05/19 00:28:21;;;;;;;;;;;;;;;21.18;54.88;98977.50;1754413;80;20761;-77
2021/05/19 00:30:51;;;;;;;;;;;;;;;21.14;54.93;98969.03;1758558;80;20244;-77
2021/05/19 00:33:16;;;;;;;;;;;;;;;21.17;54.96;98973.14;1757259;81;20287;-77
2021/05/19 00:35:42;;;;;;;;;;;;;;;21.13;54.96;98966.05;1758550;81;20175;-77
2021/05/19 00:38:08;;;;;;;;;;;;;;;21.11;54.87;98970.91;1758533;81;20160;-78
2021/05/19 00:40:34;;;;;;;;;;;;;;;21.08;54.84;98969.28;1757287;81;20222;-78
2021/05/19 00:43:00;;;;;;;;;;;;;;;21.02;54.84;98971.95;1758687;81;20152;-77
2021/05/19 00:45:27;;;;;;;;;;;;;;;20.98;54.85;98972.22;1756784;81;20556;-77
2021/05/19 00:47:54;;;;;;;;;;;;;;;20.97;54.77;98972.46;1741129;81;20247;-77
2021/05/19 00:50:25;;;;;;;;;;;;;;;20.95;54.63;98962.39;1744763;81;20208;-77
2021/05/19 00:52:51;;;;;;;;;;;;;;;20.93;54.55;98967.27;1743238;81;20228;-77
2021/05/19 00:55:18;;;;;;;;;;;;;;;20.88;54.35;98957.70;1743019;81;20222;-77
2021/05/19 00:57:44;;;;;;;;;;;;;;;20.84;54.21;98952.50;1745198;81;20282;-77
2021/05/19 01:00:13;;;;;;;;;;;;;;;20.76;54.10;98957.37;1743931;81;20148;-77
2021/05/19 01:02:50;;;;;;;;;;;;;;;20.69;54.05;98962.20;1734336;81;20207;-77
2021/05/19 01:05:27;;;;;;;;;;;;;;;20.64;54.17;98968.97;1741067;81;20264;-77
2021/05/19 01:10:39;;;;;;;;;;;;;;;20.50;54.09;98969.12;1742689;81;20215;-77
2021/05/19 01:13:06;;;;;;;;;;;;;;;20.36;54.02;98977.41;1742292;81;20151;-76
2021/05/19 01:15:33;;;;;;;;;;;;;;;20.23;54.30;98979.47;1755761;81;20156;-77
2021/05/19 01:18:03;;;;;;;;;;;;;;;20.17;54.31;98985.94;1763597;81;20144;-77
2021/05/19 01:20:29;;;;;;;;;;;;;;;20.13;54.46;98986.16;1763632;81;20172;-77
2021/05/19 01:22:56;;;;;;;;;;;;;;;20.11;54.47;98985.58;1763668;81;20136;-77
2021/05/19 01:25:22;;;;;;;;;;;;;;;20.00;54.48;98990.65;1763851;81;20155;-77
2021/05/19 01:27:53;;;;;;;;;;;;;;;19.96;54.60;98988.16;1764419;81;20183;-77
2021/05/19 01:30:20;;;;;;;;;;;;;;;19.95;54.67;98996.84;1763690;80;20572;-77
2021/05/19 01:32:47;;;;;;;;;;;;;;;19.92;54.68;99010.12;1763481;81;20251;-77
2021/05/19 01:35:13;;;;;;;;;;;;;;;19.87;54.87;99005.98;1763887;81;20210;-77
2021/05/19 01:37:43;;;;;;;;;;;;;;;19.84;54.89;99006.48;1763834;81;20203;-77
2021/05/19 01:40:13;;;;;;;;;;;;;;;19.79;54.89;99011.86;1763841;81;20160;-77
2021/05/19 01:42:41;;;;;;;;;;;;;;;19.70;54.84;99010.94;1763853;81;20176;-77
2021/05/19 01:45:11;;;;;;;;;;;;;;;19.58;55.04;99010.23;1741397;81;20244;-78
2021/05/19 01:47:45;;;;;;;;;;;;;;;19.53;55.21;99007.46;1771784;79;20203;-77
2021/05/19 01:50:13;;;;;;;;;;;;;;;19.49;55.36;98996.81;1771249;79;20165;-77
2021/05/19 01:52:39;;;;;;;;;;;;;;;19.54;55.56;99004.20;1776216;79;20211;-77
2021/05/19 01:55:08;;;;;;;;;;;;;;;19.58;55.75;99003.45;1747724;79;20240;-77
2021/05/19 01:57:35;;;;;;;;;;;;;;;19.63;55.76;99000.00;1748704;79;20214;-77
2021/05/19 02:00:05;;;;;;;;;;;;;;;19.66;55.79;99005.73;1740653;81;20188;-77
2021/05/19 02:02:33;;;;;;;;;;;;;;;19.70;55.58;99008.23;1740052;81;20222;-77
2021/05/19 02:04:59;;;;;;;;;;;;;;;19.65;55.40;99014.14;1739416;81;20544;-77
2021/05/19 02:07:27;;;;;;;;;;;;;;;19.62;55.54;99009.20;1738664;81;20246;-77
2021/05/19 02:09:53;;;;;;;;;;;;;;;19.61;55.63;99006.21;1727481;82;20224;-77
2021/05/19 02:12:19;;;;;;;;;;;;;;;19.62;55.60;99001.05;1726884;83;20139;-77
2021/05/19 02:14:47;;;;;;;;;;;;;;;19.65;55.62;99002.73;1727158;83;20167;-76
2021/05/19 02:17:15;;;;;;;;;;;;;;;19.67;55.43;99007.39;1726630;83;20147;-76
2021/05/19 02:19:44;;;;;;;;;;;;;;;19.70;55.40;99014.20;1741107;81;20717;-77
2021/05/19 02:22:10;;;;;;;;;;;;;;;19.71;55.34;99018.05;1743541;81;20668;-77
2021/05/19 02:24:38;;;;;;;;;;;;;;;19.72;55.29;99020.22;1738562;80;20204;-77
2021/05/19 02:27:06;;;;;;;;;;;;;;;19.72;55.28;99019.68;1740965;81;20215;-77
2021/05/19 02:29:32;;;;;;;;;;;;;;;19.74;55.25;99022.12;1733402;82;20495;-78
2021/05/19 02:31:59;;;;;;;;;;;;;;;19.74;55.24;99024.84;1733397;82;20256;-77
2021/05/19 02:34:25;;;;;;;;;;;;;;;19.78;55.12;99025.17;1733185;82;20241;-77
2021/05/19 02:36:54;;;;;;;;;;;;;;;19.78;55.03;99033.32;1731030;83;20647;-77
2021/05/19 02:39:21;;;;;;;;;;;;;;;19.82;55.01;99037.18;1731270;83;20273;-77
2021/05/19 02:41:49;;;;;;;;;;;;;;;19.84;54.97;99037.73;1730884;83;20249;-78
2021/05/19 02:44:15;;;;;;;;;;;;;;;19.88;54.90;99040.23;1731891;82;20257;-78
2021/05/19 02:46:42;;;;;;;;;;;;;;;19.93;54.89;99037.57;1732021;82;20285;-77
2021/05/19 02:49:08;;;;;;;;;;;;;;;19.97;54.68;99036.81;1732094;83;20289;-78
2021/05/19 02:51:36;;;;;;;;;;;;;;;19.99;54.61;99037.94;1732942;82;20552;-77
2021/05/19 02:54:03;;;;;;;;;;;;;;;20.04;54.69;99035.81;1737278;82;20138;-77
2021/05/19 02:56:29;;;;;;;;;;;;;;;20.09;54.57;99026.35;1733480;82;20174;-77
2021/05/19 02:58:55;;;;;;;;;;;;;;;20.17;54.47;99026.72;1733913;82;20315;-79
2021/05/19 03:01:22;;;;;;;;;;;;;;;20.24;54.41;99037.38;1734245;82;20158;-79
2021/05/19 03:03:48;;;;;;;;;;;;;;;20.28;54.37;99036.61;1735179;82;20174;-79
2021/05/19 03:06:14;;;;;;;;;;;;;;;20.33;54.32;99041.82;1734011;83;20543;-77
2021/05/19 03:08:40;;;;;;;;;;;;;;;20.38;54.30;99048.66;1733502;83;20173;-77
2021/05/19 03:11:06;;;;;;;;;;;;;;;20.42;54.23;99051.16;1733547;82;20209;-77
2021/05/19 03:13:33;;;;;;;;;;;;;;;20.45;54.10;99052.02;1737180;82;20166;-77
2021/05/19 03:15:59;;;;;;;;;;;;;;;20.49;53.93;99048.55;1733259;83;20550;-77
2021/05/19 03:18:26;;;;;;;;;;;;;;;20.51;53.39;99053.19;1733394;83;20182;-77
2021/05/19 03:20:52;;;;;;;;;;;;;;;20.54;53.26;99047.78;1733805;82;20229;-77
2021/05/19 03:23:18;;;;;;;;;;;;;;;20.56;53.10;99055.13;1733647;82;20186;-77
2021/05/19 03:25:44;;;;;;;;;;;;;;;20.53;52.96;99047.51;1734120;83;20166;-77
2021/05/19 03:28:10;;;;;;;;;;;;;;;20.53;52.91;99047.51;1734098;82;20249;-77
2021/05/19 03:30:36;;;;;;;;;;;;;;;20.51;52.82;99046.92;1733499;83;20209;-77
2021/05/19 03:33:03;;;;;;;;;;;;;;;20.49;52.52;99055.36;1733406;82;20304;-77
2021/05/19 03:35:31;;;;;;;;;;;;;;;20.42;52.34;99049.80;1733428;82;20219;-77
2021/05/19 03:37:57;;;;;;;;;;;;;;;20.38;52.42;99046.77;1732655;83;20190;-77
2021/05/19 03:40:23;;;;;;;;;;;;;;;20.38;52.37;99050.02;1732026;82;20250;-77
2021/05/19 03:42:49;;;;;;;;;;;;;;;20.39;52.40;99051.12;1732573;83;20234;-78
2021/05/19 03:45:18;;;;;;;;;;;;;;;20.40;52.65;99047.89;1741245;81;20274;-78
2021/05/19 03:47:50;;;;;;;;;;;;;;;20.40;52.85;99053.33;1762215;80;20561;-77
2021/05/19 03:50:13;;;;;;;;;;;;;;;20.41;52.84;99050.34;1761817;81;20140;-78
2021/05/19 03:52:39;;;;;;;;;;;;;;;20.42;52.84;99048.44;1762894;81;20529;-77
2021/05/19 03:55:08;;;;;;;;;;;;;;;20.45;52.53;99042.49;1762640;80;20575;-78
2021/05/19 03:57:34;;;;;;;;;;;;;;;20.46;52.30;99043.59;1762310;80;20137;-77
2021/05/19 04:00:00;;;;;;;;;;;;;;;20.48;52.24;99048.79;1762162;81;20239;-78
2021/05/19 04:02:26;;;;;;;;;;;;;;;20.52;52.13;99053.46;1762234;80;20188;-77
2021/05/19 04:04:53;;;;;;;;;;;;;;;20.57;51.99;99058.13;1762485;81;20145;-77
2021/05/19 04:07:19;;;;;;;;;;;;;;;20.59;51.80;99050.55;1761108;80;20228;-77
2021/05/19 04:09:45;;;;;;;;;;;;;;;20.60;51.89;99049.46;1763784;81;20183;-77
2021/05/19 04:12:11;;;;;;;;;;;;;;;20.61;51.79;99048.37;1759608;81;20207;-78
2021/05/19 04:14:37;;;;;;;;;;;;;;;20.64;51.87;99053.31;1755868;81;20252;-78
2021/05/19 04:17:03;;;;;;;;;;;;;;;20.66;51.84;99040.25;1740774;82;20754;-77
2021/05/19 04:19:29;;;;;;;;;;;;;;;20.68;51.88;99051.72;1761004;81;20247;-77
2021/05/19 04:21:55;;;;;;;;;;;;;;;20.70;51.65;99054.17;1766163;79;20240;-78
2021/05/19 04:24:21;;;;;;;;;;;;;;;20.72;51.72;99059.65;1759104;78;20253;-78
2021/05/19 04:26:48;;;;;;;;;;;;;;;20.69;51.51;99064.23;1760806;81;20239;-79
2021/05/19 04:29:14;;;;;;;;;;;;;;;20.59;51.29;99064.15;1760208;80;20580;-78
2021/05/19 04:31:40;;;;;;;;;;;;;;;20.54;51.56;99060.02;1747396;81;20274;-78
2021/05/19 04:34:07;;;;;;;;;;;;;;;20.57;51.61;99062.20;1758391;81;20295;-78
2021/05/19 04:36:33;;;;;;;;;;;;;;;20.62;51.63;99065.00;1743347;81;20290;-78
2021/05/19 04:39:01;;;;;;;;;;;;;;;20.63;51.22;99065.82;1753083;80;20266;-78
2021/05/19 04:41:28;;;;;;;;;;;;;;;20.65;51.32;99067.73;1748866;81;20255;-77
2021/05/19 04:43:54;;;;;;;;;;;;;;;20.65;50.93;99064.47;1761536;81;20240;-77
2021/05/19 04:46:20;;;;;;;;;;;;;;;20.62;50.88;99065.00;1743726;80;20258;-78
2021/05/19 04:48:49;;;;;;;;;;;;;;;20.63;51.14;99065.28;1741365;80;20279;-77
2021/05/19 04:51:16;;;;;;;;;;;;;;;20.66;51.37;99066.10;1751857;79;20220;-78
2021/05/19 04:53:42;;;;;;;;;;;;;;;20.71;51.30;99072.98;1745538;79;20164;-78
2021/05/19 04:56:08;;;;;;;;;;;;;;;20.71;51.34;99077.06;1757156;79;20749;-78
2021/05/19 04:58:34;;;;;;;;;;;;;;;20.68;51.29;99077.56;1747624;78;20270;-77
2021/05/19 05:01:00;;;;;;;;;;;;;;;20.68;51.46;99084.91;1770150;79;20476;-78
2021/05/19 05:03:25;;;;;;;;;;;;;;;20.61;51.34;99091.91;1757417;80;20353;-77
2021/05/19 05:05:55;;;;;;;;;;;;;;;20.53;51.44;99089.67;1744974;79;20354;-76
2021/05/19 05:08:20;;;;;;;;;;;;;;;20.46;51.55;99093.09;1751284;79;20249;-77
2021/05/19 05:10:46;;;;;;;;;;;;;;;20.41;51.76;99095.22;1741983;81;20264;-77
2021/05/19 05:13:13;;;;;;;;;;;;;;;20.38;51.97;99100.34;1737710;79;20628;-77
2021/05/19 05:15:39;;;;;;;;;;;;;;;20.39;52.08;99107.41;1757475;79;20173;-76
2021/05/19 05:18:04;;;;;;;;;;;;;;;20.38;52.18;99100.34;1759394;79;20781;-78
2021/05/19 05:20:30;;;;;;;;;;;;;;;20.38;52.01;99089.45;1765318;79;20161;-77
2021/05/19 05:22:58;;;;;;;;;;;;;;;20.36;52.20;99101.14;1764789;79;20745;-77
2021/05/19 05:25:25;;;;;;;;;;;;;;;20.38;52.35;99090.82;1765477;79;20244;-78
2021/05/19 05:27:54;;;;;;;;;;;;;;;20.39;52.49;99087.83;1749874;79;20331;-77
2021/05/19 05:30:20;;;;;;;;;;;;;;;20.50;52.65;99077.93;1734687;79;20172;-76
2021/05/19 05:32:46;;;;;;;;;;;;;;;20.56;52.28;99083.70;1756450;79;20179;-78
2021/05/19 05:35:12;;;;;;;;;;;;;;;20.60;51.98;99091.63;1727555;79;20180;-79
2021/05/19 05:37:38;;;;;;;;;;;;;;;20.63;51.63;99088.41;1755999;79;20736;-77
2021/05/19 05:40:08;;;;;;;;;;;;;;;20.64;51.57;99091.41;1751363;79;20217;-76
2021/05/19 05:42:34;;;;;;;;;;;;;;;20.63;51.17;99097.92;1727926;79;20181;-77
2021/05/19 05:45:01;;;;;;;;;;;;;;;20.62;51.30;99090.84;1754567;79;20186;-77
2021/05/19 05:47:27;;;;;;;;;;;;;;;20.63;50.90;99093.03;1754314;79;20272;-77
2021/05/19 05:49:53;;;;;;;;;;;;;;;20.62;51.23;99090.00;1757604;79;20224;-77
2021/05/19 05:52:23;;;;;;;;;;;;;;;20.66;51.75;99097.94;1757650;79;20194;-78
2021/05/19 05:54:49;;;;;;;;;;;;;;;20.72;50.81;99093.66;1751224;79;20221;-76
2021/05/19 05:57:15;;;;;;;;;;;;;;;20.75;50.41;99095.84;1758562;79;20230;-77
2021/05/19 05:59:41;;;;;;;;;;;;;;;20.74;50.21;99094.21;1752879;79;20247;-76
2021/05/19 06:02:07;;;;;;;;;;;;;;;20.82;50.47;99109.80;1757559;79;20200;-76
2021/05/19 06:04:33;;;;;;;;;;;;;;;20.91;50.16;99110.97;1752814;79;20571;-77
2021/05/19 06:07:02;;;;;;;;;;;;;;;20.96;49.50;99115.09;1758098;79;20386;-77
2021/05/19 06:09:32;;;;;;;;;;;;;;;20.98;49.76;99112.92;1683786;82;20698;-77
2021/05/19 06:11:58;;;;;;;;;;;;;;;21.01;49.50;99105.06;1751559;79;20168;-76
2021/05/19 06:14:24;;;;;;;;;;;;;;;21.06;49.67;99106.19;1740264;79;20631;-76
2021/05/19 06:16:52;;;;;;;;;;;;;;;21.11;49.74;99104.33;1730758;81;20631;-76
2021/05/19 06:19:18;;;;;;;;;;;;;;;21.16;49.44;99103.00;1733932;81;20196;-77
2021/05/19 06:21:46;;;;;;;;;;;;;;;21.20;49.16;99104.67;1748029;80;20154;-76
2021/05/19 06:24:12;;;;;;;;;;;;;;;21.22;49.10;99114.23;1751360;80;20691;-77
2021/05/19 06:26:38;;;;;;;;;;;;;;;21.25;48.57;99111.52;1756668;79;20194;-79
2021/05/19 06:29:05;;;;;;;;;;;;;;;21.26;48.17;99111.81;1758852;79;20197;-78
2021/05/19 06:31:30;;;;;;;;;;;;;;;21.34;48.76;99103.71;1740165;79;20318;-78
2021/05/19 06:33:56;;;;;;;;;;;;;;;21.48;48.56;99104.89;1761287;79;20176;-77
2021/05/19 06:36:22;;;;;;;;;;;;;;;21.62;48.63;99102.02;1759306;79;21213;-77
2021/05/19 06:38:48;;;;;;;;;;;;;;;21.81;48.33;99108.38;1752289;79;20183;-77
2021/05/19 06:41:19;;;;;;;;;;;;;;;21.93;47.57;99111.69;1755680;79;20832;-77
2021/05/19 06:43:45;;;;;;;;;;;;;;;22.03;47.35;99103.03;1753372;79;20252;-77
2021/05/19 06:46:12;;;;;;;;;;;;;;;22.17;47.30;99108.84;1763531;79;20600;-77
2021/05/19 06:48:40;;;;;;;;;;;;;;;22.29;47.16;99121.69;1756167;79;20240;-78
2021/05/19 06:51:06;;;;;;;;;;;;;;;22.38;46.67;99115.17;1743652;79;20241;-78
2021/05/19 06:53:32;;;;;;;;;;;;;;;22.42;46.35;99122.28;1754576;79;20305;-78
2021/05/19 06:56:01;;;;;;;;;;;;;;;22.38;46.17;99109.72;1751535;79;20276;-76
2021/05/19 06:58:27;;;;;;;;;;;;;;;22.35;46.35;99114.91;1748329;79;20214;-76
2021/05/19 07:01:01;;;;;;;;;;;;;;;22.35;46.54;99120.38;1741190;79;20236;-77
2021/05/19 07:03:32;;;;;;;;;;;;;;;22.33;46.50;99121.16;1676323;79;20713;-76
2021/05/19 07:05:57;;;;;;;;;;;;;;;22.26;46.31;99116.80;1745654;79;20283;-76
2021/05/19 07:08:24;;;;;;;;;;;;;;;22.25;46.37;99115.13;1731021;80;20715;-77
2021/05/19 07:10:49;;;;;;;;;;;;;;;22.34;46.77;99120.89;1753031;79;20219;-77
2021/05/19 07:13:18;;;;;;;;;;;;;;;22.43;46.41;99119.83;1752312;79;20155;-76
2021/05/19 07:16:03;;;;;;;;;;;;;;;22.50;46.30;99123.13;1750326;79;20207;-76
2021/05/19 07:18:18;;;;;;;;;;;;;;;22.59;46.12;99128.34;1720917;79;20239;-77
2021/05/19 07:20:44;;;;;;;;;;;;;;;22.68;46.05;99137.64;1752422;79;20212;-77
2021/05/19 07:23:10;;;;;;;;;;;;;;;22.76;45.51;99140.39;1753171;79;20198;-78
2021/05/19 07:25:37;;;;;;;;;;;;;;;22.93;45.95;99133.33;1751029;80;20608;-77
2021/05/19 07:28:07;;;;;;;;;;;;;;;23.20;45.17;99142.08;1748002;79;20310;-77
2021/05/19 07:30:36;;;;;;;;;;;;;;;23.33;43.92;99148.10;1740646;79;20683;-78
2021/05/19 07:33:02;;;;;;;;;;;;;;;23.34;43.60;99149.19;1745733;79;20297;-77
2021/05/19 07:35:29;;;;;;;;;;;;;;;23.39;43.80;99157.92;1745936;79;20195;-78
2021/05/19 07:37:55;;;;;;;;;;;;;;;23.44;43.73;99156.58;1754452;79;20202;-77
2021/05/19 07:40:22;;;;;;;;;;;;;;;23.45;43.50;99159.58;1745134;79;20202;-77
2021/05/19 07:42:50;;;;;;;;;;;;;;;23.42;43.73;99158.76;1733472;80;20320;-76
2021/05/19 07:45:17;;;;;;;;;;;;;;;23.38;44.02;99165.86;1759809;79;20979;-76
2021/05/19 07:47:43;;;;;;;;;;;;;;;23.33;44.27;99165.86;1751343;79;20225;-77
2021/05/19 07:50:09;;;;;;;;;;;;;;;23.29;44.54;99171.05;1749370;79;20235;-77
2021/05/19 07:52:35;;;;;;;;;;;;;;;23.22;44.83;99171.88;1753563;79;20177;-76
2021/05/19 07:55:04;;;;;;;;;;;;;;;23.18;45.22;99169.42;1749050;79;20170;-76
2021/05/19 07:57:43;;;;;;;;;;;;;;;23.15;45.38;99175.41;1753052;79;20264;-78
2021/05/19 08:00:12;;;;;;;;;;;;;;;23.10;45.32;99176.78;1746838;79;20191;-78
2021/05/19 08:02:33;;;;;;;;;;;;;;;23.09;45.69;99176.52;1746982;79;20199;-77
2021/05/19 08:05:00;;;;;;;;;;;;;;;23.07;45.87;99183.59;1752750;79;20223;-77
2021/05/19 08:07:26;;;;;;;;;;;;;;;23.02;45.76;99179.49;1728819;79;20146;-78
2021/05/19 08:09:52;;;;;;;;;;;;;;;23.00;45.82;99181.69;1756347;79;20250;-79
2021/05/19 08:12:18;;;;;;;;;;;;;;;22.97;45.90;99183.58;1747984;79;20234;-78
2021/05/19 08:14:45;;;;;;;;;;;;;;;22.96;46.02;99183.31;1751863;79;20546;-78
2021/05/19 08:17:17;;;;;;;;;;;;;;;22.92;45.83;99181.66;1751009;79;20288;-77
2021/05/19 08:19:42;;;;;;;;;;;;;;;22.90;46.04;99184.41;1717209;80;20214;-76
2021/05/19 08:22:12;;;;;;;;;;;;;;;22.88;46.62;99185.17;1744066;79;20669;-77
2021/05/19 08:24:42;;;;;;;;;;;;;;;22.88;47.13;99198.83;1741161;79;20198;-76
2021/05/19 08:27:10;;;;;;;;;;;;;;;22.86;47.46;99192.28;1745871;79;20306;-77
2021/05/19 08:29:36;;;;;;;;;;;;;;;22.83;47.65;99196.09;1747827;79;20207;-77
2021/05/19 08:32:03;;;;;;;;;;;;;;;22.78;47.90;99202.36;1743888;79;20255;-78
2021/05/19 08:34:29;;;;;;;;;;;;;;;22.73;48.30;99197.70;1744251;79;20685;-77
2021/05/19 08:36:56;;;;;;;;;;;;;;;22.73;48.51;99193.61;1746391;79;20264;-77
2021/05/19 08:39:24;;;;;;;;;;;;;;;22.76;48.56;99196.36;1744612;79;20216;-75
2021/05/19 08:41:51;;;;;;;;;;;;;;;22.77;48.73;99197.99;1748689;79;20271;-76
2021/05/19 08:44:19;;;;;;;;;;;;;;;22.77;48.71;99189.80;1744516;79;20229;-78
2021/05/19 08:46:48;;;;;;;;;;;;;;;22.78;48.59;99191.44;1745084;78;20699;-77
2021/05/19 08:49:16;;;;;;;;;;;;;;;22.83;48.23;99193.36;1746419;79;20219;-77
2021/05/19 08:51:43;;;;;;;;;;;;;;;22.84;48.14;99197.17;1742255;79;20786;-77
2021/05/19 08:54:12;;;;;;;;;;;;;;;22.86;48.17;99194.20;1721472;79;21110;-76
2021/05/19 08:56:42;;;;;;;;;;;;;;;22.88;48.21;99189.27;1745887;79;21022;-79
2021/05/19 08:59:19;;;;;;;;;;;;;;;22.89;47.93;99198.61;1730645;80;20273;-77
2021/05/19 09:01:52;;;;;;;;;;;;;;;22.83;47.37;99192.81;1750720;79;20197;-78
2021/05/19 09:04:26;;;;;;;;;;;;;;;22.77;47.51;99191.98;1747955;79;20285;-78
2021/05/19 09:06:58;;;;;;;;;;;;;;;22.77;47.80;99184.34;1730954;80;20606;-77
2021/05/19 09:09:27;;;;;;;;;;;;;;;22.83;48.19;99193.36;1752861;79;20172;-77
2021/05/19 09:12:01;;;;;;;;;;;;;;;22.83;48.33;99194.17;1727625;79;20215;-78
2021/05/19 09:14:31;;;;;;;;;;;;;;;22.82;48.59;99198.55;1746651;80;20232;-76
2021/05/19 09:17:35;;;;;;;;;;;;;;;22.81;48.62;99198.28;1748322;79;20236;-76
2021/05/19 09:20:07;;;;;;;;;;;;;;;22.76;48.17;99193.63;1731831;81;20203;-77
2021/05/19 09:22:41;;;;;;;;;;;;;;;22.72;48.20;99194.70;1748213;79;20239;-76
2021/05/19 09:25:22;;;;;;;;;;;;;;;22.76;48.01;99197.72;1747017;79;20245;-74
2021/05/19 09:27:53;;;;;;;;;;;;;;;22.79;48.01;99195.25;1750775;79;20207;-78
2021/05/19 09:30:42;;;;;;;;;;;;;;;22.88;48.04;99211.11;1755053;79;20184;-77
2021/05/19 09:33:22;;;;;;;;;;;;;;;22.89;47.61;99213.63;1750843;79;20201;-79
2021/05/19 09:36:19;;;;;;;;;;;;;;;22.89;47.51;99205.44;1753179;79;20244;-79
2021/05/19 09:38:49;;;;;;;;;;;;;;;22.93;47.98;99211.97;1755424;79;20215;-78
2021/05/19 09:41:23;;;;;;;;;;;;;;;23.03;47.76;99200.27;1754435;79;20219;-76
2021/05/19 09:43:52;;;;;;;;;;;;;;;23.13;47.61;99196.19;1757728;79;20308;-78
2021/05/19 09:46:34;;;;;;;;;;;;;;;23.24;47.42;99198.37;1753763;79;20251;-75
2021/05/19 09:49:09;;;;;;;;;;;;;;;23.25;46.66;99217.21;1754217;79;20275;-78
2021/05/19 09:51:40;;;;;;;;;;;;;;;23.13;46.27;99212.58;1756929;79;20514;-78
2021/05/19 09:54:07;;;;;;;;;;;;;;;23.02;46.48;99228.09;1754637;79;20291;-78
2021/05/19 09:56:34;;;;;;;;;;;;;;;22.92;46.91;99218.53;1710235;79;20223;-77
2021/05/19 09:59:03;;;;;;;;;;;;;;;22.87;47.24;99220.40;1687650;79;20585;-76
2021/05/19 10:01:29;;;;;;;;;;;;;;;22.87;47.28;99219.03;1728672;79;20286;-77
2021/05/19 10:03:57;;;;;;;;;;;;;;;22.90;47.47;99218.54;1749225;79;20207;-77
2021/05/19 10:06:27;;;;;;;;;;;;;;;22.93;47.47;99218.80;1747562;79;20175;-77
2021/05/19 10:08:57;;;;;;;;;;;;;;;22.95;47.30;99224.01;1749465;79;20220;-76
2021/05/19 10:11:23;;;;;;;;;;;;;;;22.93;47.19;99224.26;1751154;79;20209;-78
2021/05/19 10:13:51;;;;;;;;;;;;;;;22.88;47.29;99230.22;1750345;79;20152;-77
2021/05/19 10:16:18;;;;;;;;;;;;;;;22.79;47.31;99222.55;1746551;80;20246;-79
2021/05/19 10:18:48;;;;;;;;;;;;;;;22.73;47.24;99220.91;1754032;79;20234;-78
2021/05/19 10:21:15;;;;;;;;;;;;;;;22.70;47.29;99213.23;1745117;79;20234;-78
2021/05/19 10:24:05;;;;;;;;;;;;;;;22.71;47.37;99214.91;1746290;79;20676;-79
2021/05/19 10:26:30;;;;;;;;;;;;;;;22.72;47.32;99207.53;1746920;80;20683;-77
2021/05/19 10:28:59;;;;;;;;;;;;;;;22.74;47.41;99218.99;1748373;79;20235;-78
2021/05/19 10:31:33;;;;;;;;;;;;;;;22.71;47.21;99212.17;1735565;79;20979;-77
2021/05/19 10:34:00;;;;;;;;;;;;;;;22.68;47.31;99217.34;1747344;79;20251;-76
2021/05/19 10:36:31;;;;;;;;;;;;;;;22.65;47.70;99220.59;1743380;80;20349;-77
2021/05/19 10:39:13;;;;;;;;;;;;;;;22.67;47.80;99223.35;1752301;79;20210;-77
2021/05/19 10:41:48;;;;;;;;;;;;;;;22.68;47.10;99229.08;1749149;79;20164;-78
2021/05/19 10:44:27;;;;;;;;;;;;;;;22.63;47.17;99214.60;1743657;79;20218;-78
2021/05/19 10:47:04;;;;;;;;;;;;;;;22.60;47.56;99210.48;1748429;79;20173;-80
2021/05/19 10:50:13;;;;;;;;;;;;;;;22.62;47.65;99219.24;1750891;79;20245;-78
2021/05/19 10:59:05;;;;;;;;;;;;;;;22.59;46.66;99217.59;1751198;80;20269;-77
2021/05/19 11:02:03;;;;;;;;;;;;;;;22.60;46.89;99215.13;1664643;80;20283;-77
2021/05/19 11:04:29;;;;;;;;;;;;;;;22.63;46.75;99220.06;1797254;78;21257;-78
2021/05/19 11:07:03;;;;;;;;;;;;;;;22.66;47.00;99222.23;1758425;78;20233;-78
2021/05/19 11:09:31;;;;;;;;;;;;;;;22.68;47.40;99214.06;1790631;78;20157;-77
2021/05/19 11:12:21;;;;;;;;;;;;;;;22.71;47.18;99210.81;1799671;78;20285;-77
2021/05/19 11:14:55;;;;;;;;;;;;;;;22.75;47.23;99207.80;1793457;78;20145;-77
2021/05/19 11:20:10;;;;;;;;;;;;;;;22.76;46.32;99211.38;1794741;78;20538;-77
2021/05/19 11:22:36;;;;;;;;;;;;;;;22.77;46.47;99215.19;1794416;78;20841;-78
2021/05/19 11:25:04;;;;;;;;;;;;;;;22.79;46.27;99211.62;1793415;78;20149;-77
2021/05/19 11:27:34;;;;;;;;;;;;;;;22.78;46.40;99217.37;1794835;78;20217;-78
2021/05/19 11:30:04;;;;;;;;;;;;;;;22.76;46.41;99219.02;1799716;78;20319;-78
2021/05/19 11:32:33;;;;;;;;;;;;;;;22.74;46.55;99213.53;1791309;78;20201;-76
2021/05/19 11:35:16;;;;;;;;;;;;;;;22.74;46.39;99216.27;1790695;78;20193;-77
2021/05/19 11:37:55;;;;;;;;;;;;;;;22.74;46.35;99213.53;1788074;78;20188;-75
2021/05/19 11:40:39;;;;;;;;;;;;;;;22.72;46.24;99214.36;1789844;78;20200;-76
2021/05/19 11:43:05;;;;;;;;;;;;;;;22.64;46.29;99215.69;1793265;78;20177;-76
2021/05/19 11:45:32;;;;;;;;;;;;;;;22.58;46.23;99209.95;1792035;78;20266;-76
2021/05/19 11:47:58;;;;;;;;;;;;;;;22.59;46.40;99213.49;1793676;78;20221;-77
2021/05/19 11:50:28;;;;;;;;;;;;;;;22.58;46.25;99216.77;1789189;78;20703;-76
2021/05/19 11:53:00;;;;;;;;;;;;;;;22.60;46.50;99217.86;1785056;78;20253;-76
2021/05/19 11:55:53;;;;;;;;;;;;;;;22.64;46.57;99217.05;1799650;78;20224;-77
2021/05/19 11:58:24;;;;;;;;;;;;;;;22.68;46.28;99210.52;1796344;78;20161;-76
2021/05/19 12:01:01;;;;;;;;;;;;;;;22.72;45.56;99217.91;1790590;78;20611;-77
2021/05/19 12:03:32;;;;;;;;;;;;;;;22.74;45.22;99214.34;1775592;78;20162;-78
2021/05/19 12:06:05;;;;;;;;;;;;;;;22.75;45.14;99208.34;1783785;78;20880;-78
2021/05/19 12:08:37;;;;;;;;;;;;;;;22.75;45.21;99211.89;1795011;77;20133;-78
2021/05/19 12:11:11;;;;;;;;;;;;;;;22.78;45.42;99210.00;1749411;80;20167;-79
2021/05/19 12:13:39;;;;;;;;;;;;;;;22.84;45.18;99219.56;1748274;80;20160;-78
2021/05/19 12:16:10;;;;;;;;;;;;;;;22.86;44.54;99220.95;1725054;81;20190;-78
2021/05/19 12:18:40;;;;;;;;;;;;;;;22.87;44.44;99225.86;1729694;81;20587;-79
2021/05/19 12:21:11;;;;;;;;;;;;;;;22.85;44.74;99216.59;1705412;81;20178;-78
2021/05/19 12:23:42;;;;;;;;;;;;;;;22.86;45.09;99209.21;1731928;81;20218;-78
2021/05/19 12:26:09;;;;;;;;;;;;;;;22.89;44.89;99207.28;1727515;81;20170;-78
2021/05/19 12:28:36;;;;;;;;;;;;;;;22.89;44.83;99206.80;1733352;81;20210;-78
2021/05/19 12:31:05;;;;;;;;;;;;;;;22.90;44.82;99200.79;1685470;82;20186;-77
2021/05/19 12:33:42;;;;;;;;;;;;;;;22.93;44.80;99205.69;1731198;81;20214;-76
2021/05/19 12:36:11;;;;;;;;;;;;;;;22.95;44.63;99204.89;1722756;81;20205;-77
2021/05/19 12:38:56;;;;;;;;;;;;;;;22.97;44.48;99214.44;1737442;81;20205;-77
2021/05/19 12:41:45;;;;;;;;;;;;;;;22.96;44.30;99210.63;1721870;81;20166;-78
2021/05/19 12:44:12;;;;;;;;;;;;;;;22.95;44.44;99211.72;1712200;81;20189;-78
2021/05/19 12:46:39;;;;;;;;;;;;;;;22.94;44.42;99212.81;1733707;80;20192;-78
2021/05/19 12:49:12;;;;;;;;;;;;;;;22.91;44.29;99212.80;1748940;81;20596;-78
2021/05/19 12:51:50;;;;;;;;;;;;;;;22.90;44.31;99211.71;1722644;82;20171;-78
2021/05/19 12:54:17;;;;;;;;;;;;;;;22.93;44.38;99205.69;1736465;80;20230;-78
2021/05/19 12:56:43;;;;;;;;;;;;;;;22.95;44.16;99210.36;1741215;80;20172;-78
2021/05/19 12:59:10;;;;;;;;;;;;;;;22.94;43.86;99210.91;1735387;80;20358;-78
2021/05/19 13:01:44;;;;;;;;;;;;;;;22.98;43.57;99209.28;1740672;80;20202;-78
2021/05/19 13:04:10;;;;;;;;;;;;;;;23.05;43.30;99215.83;1735311;82;20170;-78
2021/05/19 13:06:37;;;;;;;;;;;;;;;23.14;43.26;99212.84;1736324;82;20189;-78
2021/05/19 13:09:05;;;;;;;;;;;;;;;23.18;41.97;99218.59;1728965;81;20166;-77